Time;durP1;ratioP1;P1;durP2;ratioP2;P2;SDS_P1;SDS_P2;PMS_P1;PMS_P2;Temp;Humidity;BMP_temperature;BMP_pressure;BME280_temperature;BME280_humidity;BME280_pressure;Samples;Min_cycle;Max_cycle;Signal;HPM_P1;HPM_P2
2022/03/11 00:00:58;;;;;;;9.80;2.40;;;19.80;49.70;;;;;;4531939;31;20140;-69
2022/03/11 00:03:24;;;;;;;6.57;1.98;;;19.80;49.70;;;;;;4547386;31;20573;-70
2022/03/11 00:05:51;;;;;;;5.50;1.83;;;19.80;49.70;;;;;;4546800;31;20174;-70
2022/03/11 00:08:17;;;;;;;6.35;1.92;;;19.70;49.60;;;;;;4546928;31;20147;-70
2022/03/11 00:10:43;;;;;;;7.55;2.40;;;19.70;49.60;;;;;;4532167;31;20184;-69
2022/03/11 00:13:09;;;;;;;5.22;2.30;;;19.70;49.70;;;;;;4532090;31;20146;-70
2022/03/11 00:15:34;;;;;;;6.28;1.90;;;19.70;49.70;;;;;;4547618;31;20116;-69
2022/03/11 00:18:01;;;;;;;6.63;2.17;;;19.70;49.70;;;;;;4546217;31;20146;-69
2022/03/11 00:20:26;;;;;;;5.53;1.92;;;19.70;49.70;;;;;;4547265;31;20627;-70
2022/03/11 00:22:53;;;;;;;5.95;2.03;;;19.60;49.70;;;;;;4531739;31;20269;-69
2022/03/11 00:25:19;;;;;;;6.43;2.00;;;19.60;49.70;;;;;;4546826;31;20192;-70
2022/03/11 00:27:46;;;;;;;4.63;1.80;;;19.60;49.70;;;;;;4546939;31;20596;-69
2022/03/11 00:30:13;;;;;;;5.90;2.28;;;19.60;49.70;;;;;;4531781;31;20254;-70
2022/03/11 00:32:41;;;;;;;5.47;2.03;;;19.60;49.70;;;;;;4547150;31;20146;-69
2022/03/11 00:35:09;;;;;;;7.32;2.17;;;19.60;49.80;;;;;;4531537;31;20216;-69
2022/03/11 00:37:36;;;;;;;7.85;2.20;;;19.50;49.70;;;;;;4546857;31;20128;-70
2022/03/11 00:40:03;;;;;;;6.07;2.13;;;19.50;49.70;;;;;;4531944;31;20146;-69
2022/03/11 00:42:29;;;;;;;7.40;1.80;;;19.50;49.70;;;;;;4546627;31;20144;-70
2022/03/11 00:44:55;;;;;;;6.15;1.92;;;19.50;49.80;;;;;;4532199;31;20129;-69
2022/03/11 00:47:20;;;;;;;7.72;2.05;;;19.50;49.90;;;;;;4545947;31;20190;-70
2022/03/11 00:49:47;;;;;;;7.20;2.30;;;19.40;49.80;;;;;;4546685;31;20123;-69
2022/03/11 00:52:13;;;;;;;8.05;2.33;;;19.40;49.80;;;;;;4545691;31;20138;-69
2022/03/11 00:54:39;;;;;;;4.93;1.83;;;19.40;49.90;;;;;;4546284;31;20124;-69
2022/03/11 00:57:05;;;;;;;9.23;2.10;;;19.40;49.80;;;;;;4546015;31;20432;-69
2022/03/11 00:59:31;;;;;;;6.57;1.90;;;19.40;49.90;;;;;;4546367;31;20178;-70
2022/03/11 01:01:56;;;;;;;5.88;1.83;;;19.40;50.00;;;;;;4546377;31;20134;-69
2022/03/11 01:04:22;;;;;;;5.07;1.92;;;19.40;49.90;;;;;;4545691;31;20186;-70
2022/03/11 01:06:51;;;;;;;4.57;1.77;;;19.40;49.90;;;;;;4546512;31;20189;-69
2022/03/11 01:09:17;;;;;;;5.97;1.83;;;19.30;49.90;;;;;;4545554;31;20128;-69
2022/03/11 01:11:43;;;;;;;6.07;2.10;;;19.30;49.90;;;;;;4546369;31;20135;-69
2022/03/11 01:14:08;;;;;;;6.65;2.05;;;19.30;50.00;;;;;;4531143;31;20127;-69
2022/03/11 01:16:34;;;;;;;5.82;1.70;;;19.30;50.00;;;;;;4546125;31;20124;-69
2022/03/11 01:19:00;;;;;;;4.30;1.85;;;19.30;50.00;;;;;;4531662;31;20142;-69
2022/03/11 01:21:28;;;;;;;5.20;1.73;;;19.30;50.00;;;;;;4545460;31;20484;-69
2022/03/11 01:23:53;;;;;;;5.47;1.85;;;19.20;50.00;;;;;;4546265;31;20146;-69
2022/03/11 01:26:19;;;;;;;5.40;1.88;;;19.20;50.00;;;;;;4530538;31;20135;-69
2022/03/11 01:28:45;;;;;;;6.95;1.90;;;19.20;50.00;;;;;;4531781;31;20124;-69
2022/03/11 01:31:13;;;;;;;5.85;2.05;;;19.20;50.90;;;;;;4545435;31;20126;-69
2022/03/11 01:33:40;;;;;;;4.05;1.70;;;19.20;50.00;;;;;;4545937;31;20139;-70
2022/03/11 01:36:10;;;;;;;5.50;1.90;;;19.20;50.00;;;;;;4545650;31;20151;-69
2022/03/11 01:38:36;;;;;;;5.18;1.70;;;19.20;50.00;;;;;;4545413;31;20515;-70
2022/03/11 01:41:03;;;;;;;5.50;1.90;;;19.20;50.00;;;;;;4546207;31;20665;-69
2022/03/11 01:43:29;;;;;;;6.47;1.83;;;19.20;50.00;;;;;;4544998;31;20127;-69
2022/03/11 01:45:56;;;;;;;4.57;1.95;;;19.10;50.00;;;;;;4531626;31;20148;-69
2022/03/11 01:48:22;;;;;;;4.32;1.50;;;19.10;50.00;;;;;;4545182;31;20143;-69
2022/03/11 01:50:52;;;;;;;4.93;1.80;;;19.10;50.00;;;;;;4545502;31;20142;-70
2022/03/11 01:53:18;;;;;;;3.80;1.63;;;19.10;50.00;;;;;;4545265;31;20142;-69
2022/03/11 01:55:44;;;;;;;4.30;1.65;;;19.10;50.00;;;;;;4545272;31;20187;-69
2022/03/11 01:58:11;;;;;;;3.47;1.40;;;19.10;50.00;;;;;;4531595;31;20147;-69
2022/03/11 02:00:40;;;;;;;3.03;1.50;;;19.10;50.00;;;;;;4544890;31;20203;-69
2022/03/11 02:03:09;;;;;;;4.50;1.67;;;19.10;50.00;;;;;;4531853;31;20206;-69
2022/03/11 02:05:35;;;;;;;5.93;1.80;;;19.00;50.00;;;;;;4544946;31;20124;-70
2022/03/11 02:08:01;;;;;;;3.40;1.63;;;19.00;50.00;;;;;;4545540;31;20190;-70
2022/03/11 02:10:29;;;;;;;4.07;1.63;;;19.00;50.00;;;;;;4545549;31;20254;-70
2022/03/11 02:12:59;;;;;;;3.55;1.63;;;19.00;50.10;;;;;;4530761;31;20143;-70
2022/03/11 02:15:25;;;;;;;4.03;1.60;;;19.00;50.10;;;;;;4532074;31;20134;-70
2022/03/11 02:17:51;;;;;;;3.88;1.60;;;19.00;50.10;;;;;;4530407;31;20119;-70
2022/03/11 02:20:17;;;;;;;4.95;1.70;;;18.90;50.00;;;;;;4545496;31;20124;-69
2022/03/11 02:22:44;;;;;;;5.15;1.92;;;19.00;50.10;;;;;;4530146;31;20112;-71
2022/03/11 02:25:10;;;;;;;3.35;1.70;;;18.90;50.00;;;;;;4545337;31;20115;-70
2022/03/11 02:27:38;;;;;;;4.20;1.58;;;18.90;50.10;;;;;;4545379;31;20164;-69
2022/03/11 02:30:24;;;;;;;4.22;1.60;;;18.90;50.10;;;;;;4544896;31;20150;-69
2022/03/11 02:32:50;;;;;;;4.43;1.73;;;18.90;50.00;;;;;;4546288;31;20135;-69
2022/03/11 02:35:18;;;;;;;3.15;1.50;;;18.90;50.00;;;;;;4533411;31;20190;-69
2022/03/11 02:37:44;;;;;;;4.25;1.52;;;18.90;50.10;;;;;;4548508;31;20116;-70
2022/03/11 02:40:10;;;;;;;5.78;1.77;;;18.90;50.10;;;;;;4548309;31;20115;-69
2022/03/11 02:42:36;;;;;;;4.03;1.67;;;18.80;50.00;;;;;;4548174;31;20128;-70
2022/03/11 02:45:04;;;;;;;3.42;1.58;;;18.80;50.00;;;;;;4534176;31;20116;-69
2022/03/11 02:47:30;;;;;;;3.20;1.73;;;18.80;50.10;;;;;;4547537;31;20288;-69
2022/03/11 02:49:56;;;;;;;4.18;1.60;;;18.80;50.00;;;;;;4547836;31;20139;-69
2022/03/11 02:52:23;;;;;;;5.63;1.70;;;18.80;50.10;;;;;;4547828;31;20564;-69
2022/03/11 02:54:49;;;;;;;3.83;1.60;;;18.80;50.10;;;;;;4548244;31;20115;-69
2022/03/11 02:57:16;;;;;;;3.38;1.67;;;18.80;50.10;;;;;;4547738;31;20265;-69
2022/03/11 02:59:46;;;;;;;3.78;1.73;;;18.80;50.20;;;;;;4548136;31;20689;-69
2022/03/11 03:02:12;;;;;;;4.32;1.73;;;18.80;50.20;;;;;;4548590;31;20701;-69
2022/03/11 03:04:38;;;;;;;2.90;1.58;;;18.70;50.10;;;;;;4532899;31;20488;-69
2022/03/11 03:07:04;;;;;;;2.42;1.52;;;18.70;50.10;;;;;;4548534;31;20249;-69
2022/03/11 03:09:30;;;;;;;3.35;1.65;;;18.70;50.10;;;;;;4547383;31;20224;-69
2022/03/11 03:11:56;;;;;;;3.28;1.42;;;18.70;50.10;;;;;;4548306;31;20138;-70
2022/03/11 03:14:22;;;;;;;3.05;1.70;;;18.70;50.20;;;;;;4547553;31;20159;-69
2022/03/11 03:16:48;;;;;;;3.63;1.80;;;18.70;50.20;;;;;;4547752;31;20504;-69
2022/03/11 03:19:14;;;;;;;3.30;1.60;;;18.70;50.10;;;;;;4533670;31;20258;-69
2022/03/11 03:21:39;;;;;;;3.67;1.63;;;18.60;50.10;;;;;;4547161;31;20108;-70
2022/03/11 03:24:08;;;;;;;3.35;1.52;;;18.60;50.10;;;;;;4547968;31;20127;-69
2022/03/11 03:26:34;;;;;;;3.65;1.75;;;18.60;50.10;;;;;;4547096;31;20175;-69
2022/03/11 03:29:00;;;;;;;2.85;1.90;;;18.60;50.20;;;;;;4547972;31;20137;-69
2022/03/11 03:31:26;;;;;;;3.47;1.50;;;18.60;50.20;;;;;;4532854;31;20115;-69
2022/03/11 03:33:52;;;;;;;3.55;1.80;;;18.60;50.20;;;;;;4547663;31;20128;-69
2022/03/11 03:36:18;;;;;;;4.38;1.98;;;18.60;50.20;;;;;;4533229;31;20278;-69
2022/03/11 03:38:44;;;;;;;4.70;1.83;;;18.60;50.20;;;;;;4546984;31;20136;-69
2022/03/11 03:41:09;;;;;;;3.13;1.55;;;18.60;50.20;;;;;;4533709;31;20135;-69
2022/03/11 03:43:35;;;;;;;3.58;1.70;;;18.50;50.20;;;;;;4546695;31;20141;-69
2022/03/11 03:46:01;;;;;;;3.05;1.67;;;18.60;50.20;;;;;;4547010;31;20260;-69
2022/03/11 03:48:27;;;;;;;4.25;1.70;;;18.50;50.20;;;;;;4547439;31;20135;-69
2022/03/11 03:50:53;;;;;;;3.92;1.75;;;18.50;50.20;;;;;;4532725;31;20115;-70
2022/03/11 03:53:20;;;;;;;3.28;1.80;;;18.50;51.10;;;;;;4547265;31;20166;-69
2022/03/11 03:55:46;;;;;;;2.45;1.60;;;18.50;50.20;;;;;;4546918;31;20148;-69
2022/03/11 03:58:12;;;;;;;2.83;1.60;;;18.50;50.20;;;;;;4547908;31;20115;-69
2022/03/11 04:00:38;;;;;;;3.03;1.45;;;18.50;50.20;;;;;;4546349;31;20131;-69
2022/03/11 04:03:04;;;;;;;4.35;1.70;;;18.50;50.20;;;;;;4547560;31;20160;-69
2022/03/11 04:05:30;;;;;;;2.65;1.75;;;18.40;50.20;;;;;;4532296;31;20135;-69
2022/03/11 04:07:56;;;;;;;3.40;1.75;;;18.40;51.20;;;;;;4547195;31;20111;-69
2022/03/11 04:10:21;;;;;;;4.25;1.67;;;18.40;50.20;;;;;;4547455;31;20238;-69
2022/03/11 04:12:47;;;;;;;3.70;2.10;;;18.40;50.20;;;;;;4546571;31;20147;-70
2022/03/11 04:15:13;;;;;;;4.95;2.25;;;18.40;50.20;;;;;;4533088;31;20142;-69
2022/03/11 04:17:39;;;;;;;3.33;1.77;;;18.40;50.20;;;;;;4546177;31;20127;-69
2022/03/11 04:20:06;;;;;;;3.88;1.67;;;18.40;50.20;;;;;;4547239;31;20269;-70
2022/03/11 04:22:32;;;;;;;4.57;1.90;;;18.40;50.30;;;;;;4532094;31;20176;-70
2022/03/11 04:24:58;;;;;;;4.25;1.85;;;18.40;50.30;;;;;;4546975;31;20143;-70
2022/03/11 04:27:24;;;;;;;3.33;2.00;;;18.30;50.20;;;;;;4546688;31;20276;-70
2022/03/11 04:29:50;;;;;;;3.55;1.73;;;18.30;50.20;;;;;;4531967;31;20469;-69
2022/03/11 04:32:16;;;;;;;2.92;1.92;;;18.30;50.20;;;;;;4547391;31;20123;-70
2022/03/11 04:34:41;;;;;;;2.85;1.58;;;18.30;50.20;;;;;;4531427;31;20139;-70
2022/03/11 04:37:07;;;;;;;3.78;2.00;;;18.30;50.20;;;;;;4547021;31;20127;-70
2022/03/11 04:39:33;;;;;;;2.78;1.70;;;18.30;50.20;;;;;;4546141;31;20135;-69
2022/03/11 04:41:59;;;;;;;2.78;1.90;;;18.30;50.20;;;;;;4519166;31;20111;-70
2022/03/11 04:44:25;;;;;;;2.78;1.70;;;18.30;50.20;;;;;;4546011;31;20159;-70
2022/03/11 04:46:51;;;;;;;3.83;1.70;;;18.30;50.20;;;;;;4531197;31;20132;-69
2022/03/11 04:49:17;;;;;;;3.38;1.92;;;18.30;50.30;;;;;;4546128;31;20112;-69
2022/03/11 04:51:43;;;;;;;3.95;1.83;;;18.20;50.30;;;;;;4545173;31;20147;-70
2022/03/11 04:54:10;;;;;;;2.60;1.63;;;18.20;50.30;;;;;;4531573;31;20178;-70
2022/03/11 04:56:37;;;;;;;4.25;1.67;;;18.20;50.30;;;;;;4544584;31;20304;-71
2022/03/11 04:59:03;;;;;;;2.95;1.63;;;18.20;50.30;;;;;;4545378;31;20204;-70
2022/03/11 05:01:29;;;;;;;3.70;1.85;;;18.20;50.30;;;;;;4544644;31;20127;-69
2022/03/11 05:03:55;;;;;;;2.88;1.60;;;18.20;50.30;;;;;;4544808;31;20167;-70
2022/03/11 05:06:21;;;;;;;2.88;1.60;;;18.20;50.30;;;;;;4545727;31;20128;-70
2022/03/11 05:08:47;;;;;;;3.10;1.70;;;18.20;50.30;;;;;;4545003;31;20139;-70
2022/03/11 05:11:13;;;;;;;3.08;1.50;;;18.20;50.30;;;;;;4545980;31;20112;-70
2022/03/11 05:13:38;;;;;;;2.90;1.80;;;18.20;50.30;;;;;;4544879;31;20202;-70
2022/03/11 05:16:05;;;;;;;2.72;1.40;;;18.20;50.30;;;;;;4531277;31;20112;-70
2022/03/11 05:18:31;;;;;;;2.67;1.67;;;18.10;50.30;;;;;;4545057;31;20170;-70
2022/03/11 05:20:57;;;;;;;2.67;1.80;;;18.10;50.30;;;;;;4545446;31;20788;-69
2022/03/11 05:23:23;;;;;;;3.45;2.08;;;18.10;50.30;;;;;;4545717;31;20465;-70
2022/03/11 05:25:49;;;;;;;3.22;1.90;;;18.10;50.30;;;;;;4545218;31;20139;-70
2022/03/11 05:28:15;;;;;;;2.55;1.60;;;18.10;50.40;;;;;;4546580;31;20593;-70
2022/03/11 05:30:41;;;;;;;3.33;1.80;;;18.10;50.40;;;;;;4530614;31;20119;-69
2022/03/11 05:33:07;;;;;;;4.53;1.75;;;18.10;50.30;;;;;;4546197;31;20190;-70
2022/03/11 05:35:33;;;;;;;3.80;2.17;;;18.00;50.30;;;;;;4545447;31;20271;-69
2022/03/11 05:37:59;;;;;;;3.92;1.77;;;18.00;50.30;;;;;;4531316;31;20160;-69
2022/03/11 05:40:25;;;;;;;3.30;1.92;;;18.00;50.30;;;;;;4531570;31;20135;-69
2022/03/11 05:42:52;;;;;;;2.42;1.65;;;18.00;50.30;;;;;;4545234;31;20328;-70
2022/03/11 05:45:18;;;;;;;2.88;1.75;;;18.00;50.30;;;;;;4546239;31;20119;-69
2022/03/11 05:47:45;;;;;;;2.20;1.60;;;18.00;50.30;;;;;;4544179;31;20262;-69
2022/03/11 05:50:12;;;;;;;4.05;1.88;;;18.00;50.30;;;;;;4545211;31;20124;-71
2022/03/11 05:52:39;;;;;;;2.13;1.60;;;18.00;50.40;;;;;;4544613;31;20139;-70
2022/03/11 05:55:06;;;;;;;2.80;1.70;;;18.00;50.40;;;;;;4545125;31;20649;-70
2022/03/11 05:57:32;;;;;;;3.28;1.85;;;18.00;50.50;;;;;;4545081;31;20243;-70
2022/03/11 05:59:58;;;;;;;4.05;2.00;;;17.90;50.40;;;;;;4530026;31;20123;-70
2022/03/11 06:02:24;;;;;;;2.35;1.55;;;18.00;50.40;;;;;;4530916;31;20116;-70
2022/03/11 06:04:50;;;;;;;2.53;1.90;;;17.90;50.40;;;;;;4544204;31;20139;-70
2022/03/11 06:07:16;;;;;;;2.60;1.90;;;17.90;50.40;;;;;;4544608;31;20147;-71
2022/03/11 06:09:42;;;;;;;2.42;1.80;;;17.90;50.40;;;;;;4530296;31;20123;-70
2022/03/11 06:12:08;;;;;;;2.92;1.88;;;17.90;50.50;;;;;;4545516;31;20178;-70
2022/03/11 06:14:34;;;;;;;3.40;1.63;;;17.90;50.40;;;;;;4545402;31;20135;-69
2022/03/11 06:17:00;;;;;;;3.35;1.92;;;17.90;50.40;;;;;;4544749;31;20128;-69
2022/03/11 06:19:26;;;;;;;2.65;1.77;;;17.90;50.40;;;;;;4530868;31;20151;-70
2022/03/11 06:21:55;;;;;;;4.35;1.85;;;17.90;50.50;;;;;;4529945;31;20512;-69
2022/03/11 06:24:21;;;;;;;3.03;1.80;;;17.90;50.50;;;;;;4545477;31;20128;-71
2022/03/11 06:26:47;;;;;;;3.25;1.90;;;17.80;50.40;;;;;;4544848;31;20119;-70
2022/03/11 06:29:12;;;;;;;3.00;1.73;;;17.80;50.50;;;;;;4545548;31;20131;-70
2022/03/11 06:31:38;;;;;;;2.28;1.75;;;17.80;50.50;;;;;;4544753;31;20112;-69
2022/03/11 06:34:04;;;;;;;3.00;1.70;;;17.80;50.50;;;;;;4544491;31;20137;-69
2022/03/11 06:36:30;;;;;;;2.45;1.77;;;17.80;50.50;;;;;;4544939;31;20135;-69
2022/03/11 06:38:56;;;;;;;2.67;1.80;;;17.80;50.50;;;;;;4544284;31;20138;-69
2022/03/11 06:41:22;;;;;;;2.20;1.75;;;17.80;50.50;;;;;;4545427;31;20178;-69
2022/03/11 06:43:48;;;;;;;3.22;1.70;;;17.80;50.50;;;;;;4544540;31;20127;-70
2022/03/11 06:46:16;;;;;;;2.50;1.90;;;17.80;50.50;;;;;;4544646;31;20120;-69
2022/03/11 06:48:42;;;;;;;3.08;2.25;;;17.80;50.50;;;;;;4544421;31;20163;-69
2022/03/11 06:51:07;;;;;;;2.75;1.83;;;17.70;50.40;;;;;;4544278;31;20573;-69
2022/03/11 06:53:33;;;;;;;2.65;1.70;;;17.70;50.40;;;;;;4544594;31;20182;-69
2022/03/11 06:56:00;;;;;;;1.90;1.58;;;17.70;50.40;;;;;;4543601;31;20134;-69
2022/03/11 06:58:29;;;;;;;3.50;1.80;;;17.70;50.40;;;;;;4545011;31;20111;-69
2022/03/11 07:00:55;;;;;;;2.38;1.90;;;17.70;50.40;;;;;;4544006;31;20135;-69
2022/03/11 07:03:20;;;;;;;4.95;1.90;;;17.70;50.40;;;;;;4544931;31;20120;-69
2022/03/11 07:05:46;;;;;;;2.80;1.73;;;17.70;50.50;;;;;;4544902;31;20132;-69
2022/03/11 07:08:14;;;;;;;2.85;1.75;;;17.70;50.50;;;;;;4530586;31;20189;-69
2022/03/11 07:10:40;;;;;;;2.95;1.80;;;17.70;50.50;;;;;;4545415;31;20123;-69
2022/03/11 07:13:06;;;;;;;1.90;1.50;;;17.70;50.50;;;;;;4544239;31;20202;-69
2022/03/11 07:15:32;;;;;;;3.95;1.90;;;17.60;50.40;;;;;;4545609;31;20111;-70
2022/03/11 07:17:58;;;;;;;3.13;1.85;;;17.70;50.50;;;;;;4544439;31;20126;-69
2022/03/11 07:20:24;;;;;;;2.67;1.67;;;17.70;50.50;;;;;;4533237;31;20134;-69
2022/03/11 07:22:50;;;;;;;2.67;1.58;;;17.60;50.50;;;;;;4533059;31;20708;-69
2022/03/11 07:25:16;;;;;;;2.17;1.60;;;17.60;50.50;;;;;;4533213;31;20248;-69
2022/03/11 07:27:42;;;;;;;1.80;1.52;;;17.60;50.50;;;;;;4548017;31;20266;-69
2022/03/11 07:30:11;;;;;;;2.92;1.70;;;17.60;50.50;;;;;;4547233;31;20587;-69
2022/03/11 07:32:39;;;;;;;2.60;1.80;;;17.60;50.50;;;;;;4548282;31;20120;-69
2022/03/11 07:35:05;;;;;;;2.20;1.80;;;17.60;50.50;;;;;;4547028;31;20119;-69
2022/03/11 07:37:31;;;;;;;2.75;1.90;;;17.60;50.50;;;;;;4547637;31;20124;-69
2022/03/11 07:39:57;;;;;;;2.53;1.75;;;17.60;50.50;;;;;;4547351;31;20204;-69
2022/03/11 07:42:23;;;;;;;2.67;1.70;;;17.60;50.50;;;;;;4547549;31;20116;-69
2022/03/11 07:44:49;;;;;;;3.72;1.70;;;17.60;50.50;;;;;;4547618;31;20185;-69
2022/03/11 07:47:15;;;;;;;2.40;1.67;;;17.60;50.50;;;;;;4546848;31;20232;-70
2022/03/11 07:49:42;;;;;;;2.83;1.67;;;17.60;50.50;;;;;;4547614;31;20312;-69
2022/03/11 07:52:14;;;;;;;2.55;1.60;;;17.60;50.50;;;;;;4546790;31;20120;-69
2022/03/11 07:54:42;;;;;;;3.65;1.95;;;17.60;50.50;;;;;;4547492;31;20139;-69
2022/03/11 07:57:09;;;;;;;3.35;1.80;;;17.60;50.50;;;;;;4532505;31;20131;-69
2022/03/11 07:59:37;;;;;;;2.35;1.80;;;17.60;50.50;;;;;;4547011;31;20142;-69
2022/03/11 08:02:03;;;;;;;2.22;1.70;;;17.60;50.50;;;;;;4547441;31;20132;-69
2022/03/11 08:04:29;;;;;;;2.00;1.60;;;17.60;50.50;;;;;;4532082;31;20158;-69
2022/03/11 08:06:58;;;;;;;2.35;1.90;;;17.70;50.50;;;;;;4547340;31;20225;-69
2022/03/11 08:09:24;;;;;;;2.08;1.63;;;17.60;50.40;;;;;;4546756;31;20120;-69
2022/03/11 08:11:49;;;;;;;2.97;1.90;;;17.60;50.40;;;;;;4547399;31;20205;-68
2022/03/11 08:14:15;;;;;;;3.72;2.95;;;17.60;50.40;;;;;;4546814;31;20119;-65
2022/03/11 08:16:41;;;;;;;8.80;5.28;;;17.60;49.90;;;;;;4547042;31;20131;-67
2022/03/11 08:19:09;;;;;;;6.22;5.07;;;17.70;49.10;;;;;;4547240;31;20145;-67
2022/03/11 08:21:35;;;;;;;9.75;7.57;;;17.70;48.20;;;;;;4546281;31;20128;-67
2022/03/11 08:24:01;;;;;;;9.90;8.23;;;17.60;47.10;;;;;;4547067;31;20131;-67
2022/03/11 08:26:27;;;;;;;10.75;7.63;;;17.60;46.50;;;;;;4546205;31;20138;-67
2022/03/11 08:28:53;;;;;;;9.63;7.50;;;17.60;46.30;;;;;;4547045;31;20128;-67
2022/03/11 08:31:19;;;;;;;10.80;7.35;;;17.60;46.50;;;;;;4531466;31;20135;-67
2022/03/11 08:33:45;;;;;;;9.23;6.45;;;17.60;46.70;;;;;;4546663;31;20134;-67
2022/03/11 08:36:11;;;;;;;7.43;6.18;;;17.70;46.80;;;;;;4547024;31;20343;-67
2022/03/11 08:38:38;;;;;;;6.82;5.68;;;17.70;46.80;;;;;;4546169;31;20199;-68
2022/03/11 08:41:07;;;;;;;8.65;6.00;;;17.70;46.80;;;;;;4547024;31;20187;-68
2022/03/11 08:43:34;;;;;;;9.15;6.45;;;17.80;47.00;;;;;;4545792;31;20140;-67
2022/03/11 08:46:01;;;;;;;9.77;5.35;;;17.90;47.00;;;;;;4546748;31;20143;-68
2022/03/11 08:48:28;;;;;;;7.45;5.07;;;18.00;47.00;;;;;;4531621;31;20175;-67
2022/03/11 08:50:55;;;;;;;9.20;5.15;;;18.10;46.90;;;;;;4546008;31;20127;-67
2022/03/11 08:53:21;;;;;;;8.35;4.68;;;18.20;46.80;;;;;;4531873;31;20340;-66
2022/03/11 08:55:47;;;;;;;8.55;5.00;;;18.30;46.70;;;;;;4545626;31;20132;-68
2022/03/11 08:58:13;;;;;;;5.50;4.70;;;18.40;46.70;;;;;;4546709;31;20253;-68
2022/03/11 09:00:41;;;;;;;5.88;4.13;;;18.60;46.60;;;;;;4545605;31;20191;-67
2022/03/11 09:03:07;;;;;;;7.38;4.32;;;18.70;46.50;;;;;;4546514;31;20132;-68
2022/03/11 09:05:33;;;;;;;7.90;4.45;;;18.80;46.30;;;;;;4531387;31;20131;-68
2022/03/11 09:07:59;;;;;;;5.85;3.97;;;18.90;46.10;;;;;;4546180;31;20188;-68
2022/03/11 09:10:25;;;;;;;6.28;4.32;;;19.00;46.00;;;;;;4546394;31;20650;-68
2022/03/11 09:12:54;;;;;;;5.57;3.70;;;19.10;45.80;;;;;;4545493;31;20123;-68
2022/03/11 09:15:20;;;;;;;7.88;4.15;;;19.20;45.60;;;;;;4546709;31;20153;-67
2022/03/11 09:17:48;;;;;;;5.10;3.50;;;19.40;45.40;;;;;;4545381;31;20605;-67
2022/03/11 09:20:14;;;;;;;6.53;5.00;;;19.50;45.50;;;;;;4531891;31;20167;-68
2022/03/11 09:22:41;;;;;;;9.68;5.88;;;19.60;44.90;;;;;;4545216;31;20508;-69
2022/03/11 09:25:10;;;;;;;8.30;6.35;;;19.60;43.80;;;;;;4530456;31;20166;-68
2022/03/11 09:27:36;;;;;;;10.25;7.53;;;19.70;42.60;;;;;;4545919;31;20143;-72
2022/03/11 09:30:05;;;;;;;10.77;7.88;;;19.80;41.80;;;;;;4545366;31;20269;-69
2022/03/11 09:32:31;;;;;;;11.65;7.90;;;19.80;41.20;;;;;;4546280;31;20123;-69
2022/03/11 09:34:58;;;;;;;13.23;8.93;;;19.80;40.80;;;;;;4545168;31;20119;-68
2022/03/11 09:37:24;;;;;;;13.05;9.25;;;19.70;40.30;;;;;;4546001;31;20270;-67
2022/03/11 09:39:49;;;;;;;16.50;8.75;;;19.70;40.00;;;;;;4545364;31;20127;-66
2022/03/11 09:42:15;;;;;;;12.52;8.85;;;19.60;40.00;;;;;;4545064;31;20257;-66
2022/03/11 09:44:50;;;;;;;11.57;9.05;;;19.50;39.80;;;;;;4531368;31;20491;-68
2022/03/11 09:47:16;;;;;;;11.07;8.88;;;19.40;39.60;;;;;;4544919;31;20116;-69
2022/03/11 09:49:42;;;;;;;11.68;9.02;;;19.40;39.80;;;;;;4546083;31;20143;-68
2022/03/11 09:52:09;;;;;;;11.30;9.13;;;19.30;39.70;;;;;;4545108;31;20192;-71
2022/03/11 09:54:35;;;;;;;13.05;9.82;;;19.30;39.70;;;;;;4545662;31;20136;-68
2022/03/11 09:57:01;;;;;;;13.40;9.77;;;19.20;39.70;;;;;;4544097;31;20119;-68
2022/03/11 09:59:28;;;;;;;15.82;9.95;;;19.10;39.60;;;;;;4529297;31;20197;-75
2022/03/11 10:01:54;;;;;;;14.43;10.38;;;19.10;39.70;;;;;;4545162;31;20193;-72
2022/03/11 10:04:21;;;;;;;11.68;9.65;;;19.00;39.60;;;;;;4544849;31;20219;-70
2022/03/11 10:06:48;;;;;;;12.43;9.82;;;18.90;39.50;;;;;;4545855;31;20195;-69
2022/03/11 10:09:31;;;;;;;13.02;9.80;;;18.90;39.60;;;;;;4531905;31;20143;-68
2022/03/11 10:11:57;;;;;;;13.55;10.10;;;18.80;39.50;;;;;;4545015;31;20449;-69
2022/03/11 10:14:32;;;;;;;16.10;9.57;;;18.80;39.50;;;;;;4544860;31;20146;-69
2022/03/11 10:16:59;;;;;;;14.07;9.80;;;18.80;39.40;;;;;;4544608;31;20236;-68
2022/03/11 10:19:25;;;;;;;13.32;10.00;;;18.70;39.20;;;;;;4545333;31;20186;-68
2022/03/11 10:21:54;;;;;;;14.13;10.60;;;18.70;39.10;;;;;;4530191;31;20127;-68
2022/03/11 10:24:21;;;;;;;14.27;9.55;;;18.60;39.00;;;;;;4545311;31;20163;-68
2022/03/11 10:26:49;;;;;;;14.90;9.98;;;18.60;38.90;;;;;;4530403;31;20168;-68
2022/03/11 10:29:41;;;;;;;18.33;10.43;;;18.50;38.80;;;;;;4544831;31;20119;-69
2022/03/11 10:32:07;;;;;;;11.85;9.98;;;18.50;38.40;;;;;;4543381;31;20150;-68
2022/03/11 10:34:35;;;;;;;13.95;9.77;;;18.50;38.80;;;;;;4543681;31;20155;-68
2022/03/11 10:37:02;;;;;;;13.18;11.13;;;18.40;38.50;;;;;;4544081;31;20172;-67
2022/03/11 10:39:31;;;;;;;16.95;10.30;;;18.40;38.50;;;;;;4543191;31;20159;-69
2022/03/11 10:42:13;;;;;;;13.65;10.27;;;18.40;38.30;;;;;;4545176;31;20174;-70
2022/03/11 10:44:40;;;;;;;12.27;9.85;;;18.30;37.90;;;;;;4544432;31;20138;-67
2022/03/11 10:47:19;;;;;;;13.57;9.63;;;18.30;38.30;;;;;;4544632;31;20140;-69
2022/03/11 10:49:56;;;;;;;11.25;9.93;;;18.30;38.20;;;;;;4545382;31;20175;-68
2022/03/11 10:52:34;;;;;;;16.13;9.63;;;18.20;38.30;;;;;;4544343;31;21074;-68
2022/03/11 10:55:14;;;;;;;12.48;8.30;;;18.20;38.50;;;;;;4547033;31;20135;-68
2022/03/11 10:57:41;;;;;;;10.93;9.00;;;18.20;38.90;;;;;;4548656;31;20179;-68
2022/03/11 11:00:23;;;;;;;11.18;8.15;;;18.20;39.20;;;;;;4547312;31;20143;-67
2022/03/11 11:02:52;;;;;;;13.82;8.50;;;18.20;39.20;;;;;;4533812;31;20116;-66
2022/03/11 11:05:18;;;;;;;11.40;7.35;;;18.10;39.60;;;;;;4547717;31;20127;-67
2022/03/11 11:07:45;;;;;;;9.43;7.40;;;18.10;39.70;;;;;;4548149;31;20284;-67
2022/03/11 11:10:13;;;;;;;13.57;7.30;;;18.10;40.00;;;;;;4548116;31;20131;-67
2022/03/11 11:12:39;;;;;;;9.52;7.35;;;18.10;40.20;;;;;;4547535;31;20246;-67
2022/03/11 11:15:07;;;;;;;8.93;6.88;;;18.10;40.40;;;;;;4548592;31;20132;-66
2022/03/11 11:17:36;;;;;;;11.85;6.85;;;18.10;40.60;;;;;;4547258;31;20192;-67
2022/03/11 11:20:05;;;;;;;8.68;6.65;;;18.10;41.80;;;;;;4548176;31;20124;-67
2022/03/11 11:22:33;;;;;;;9.00;6.40;;;18.00;41.00;;;;;;4547368;31;20189;-66
2022/03/11 11:25:01;;;;;;;11.45;6.63;;;18.00;41.30;;;;;;4547861;31;20151;-67
2022/03/11 11:27:32;;;;;;;8.80;6.13;;;18.00;41.50;;;;;;4548039;31;20155;-66
2022/03/11 11:29:59;;;;;;;9.73;6.15;;;18.00;41.70;;;;;;4547342;31;20127;-67
2022/03/11 11:32:25;;;;;;;8.07;5.70;;;18.00;41.90;;;;;;4548149;31;20260;-66
2022/03/11 11:34:51;;;;;;;8.93;5.53;;;18.00;42.10;;;;;;4547104;31;20435;-67
2022/03/11 11:37:37;;;;;;;7.78;5.68;;;18.00;42.30;;;;;;4547916;31;20116;-66
2022/03/11 11:40:24;;;;;;;6.43;5.35;;;18.00;42.50;;;;;;4533067;31;20112;-67
2022/03/11 11:43:29;;;;;;;7.30;5.65;;;18.00;42.80;;;;;;4546891;31;20501;-67
2022/03/11 11:46:09;;;;;;;10.52;5.35;;;18.00;43.00;;;;;;4506654;31;20159;-67
2022/03/11 11:48:35;;;;;;;7.35;5.70;;;18.00;43.00;;;;;;4547521;31;20144;-67
2022/03/11 11:51:07;;;;;;;10.38;5.30;;;18.00;43.30;;;;;;4547026;31;20150;-67
2022/03/11 11:53:41;;;;;;;9.02;5.43;;;18.00;43.60;;;;;;4547773;31;20146;-68
2022/03/11 11:56:30;;;;;;;8.27;5.35;;;18.00;44.00;;;;;;4532185;31;20266;-68
2022/03/11 11:59:02;;;;;;;9.48;5.10;;;17.90;44.50;;;;;;4547335;31;20142;-68
2022/03/11 12:01:42;;;;;;;8.18;5.50;;;17.90;44.50;;;;;;4547372;31;20127;-68
2022/03/11 12:04:21;;;;;;;7.45;5.05;;;17.90;44.80;;;;;;4532306;31;20136;-66
2022/03/11 12:07:06;;;;;;;6.60;5.10;;;17.90;44.80;;;;;;4546775;31;20123;-67
2022/03/11 12:09:58;;;;;;;6.53;5.22;;;17.90;45.00;;;;;;4546861;31;20216;-66
2022/03/11 12:12:29;;;;;;;8.85;5.53;;;17.90;45.00;;;;;;4546962;31;20196;-66
2022/03/11 12:15:00;;;;;;;6.93;5.13;;;17.90;45.10;;;;;;4547544;31;20131;-66
2022/03/11 12:17:51;;;;;;;7.82;4.88;;;17.90;45.20;;;;;;4546176;31;20131;-67
2022/03/11 12:20:35;;;;;;;10.95;5.55;;;17.90;45.40;;;;;;4547506;31;20572;-66
2022/03/11 12:23:09;;;;;;;;;;;17.90;45.40;;;;;;4547164;31;20136;-67
2022/03/11 12:25:39;;;;;;;6.57;4.78;;;17.90;45.50;;;;;;4545316;31;20090;-67
2022/03/11 12:28:12;;;;;;;7.68;4.45;;;17.90;45.40;;;;;;4546000;31;20155;-67
2022/03/11 12:30:39;;;;;;;6.18;4.38;;;17.90;45.50;;;;;;4545422;31;20272;-66
2022/03/11 12:33:08;;;;;;;6.45;4.70;;;17.90;45.60;;;;;;4546345;31;20207;-66
2022/03/11 12:35:35;;;;;;;6.75;4.72;;;17.90;45.70;;;;;;4545873;31;20510;-67
2022/03/11 12:38:02;;;;;;;8.48;5.03;;;17.90;45.70;;;;;;4545991;31;20149;-67
2022/03/11 12:40:29;;;;;;;7.35;5.03;;;17.90;45.90;;;;;;4531712;31;20573;-68
2022/03/11 12:43:00;;;;;;;8.25;4.80;;;17.90;46.00;;;;;;4545002;31;20143;-67
2022/03/11 12:45:54;;;;;;;10.00;5.35;;;17.90;46.30;;;;;;4546367;31;20195;-67
2022/03/11 12:48:21;;;;;;;;;;;17.90;46.40;;;;;;4543665;31;20714;-68